createdAt,value
2019-06-10T00:02:21.272Z,3.60
2019-06-10T00:04:52.875Z,4.00
2019-06-10T00:07:25.006Z,3.10
2019-06-10T00:09:58.091Z,3.55
2019-06-10T00:12:31.377Z,3.33
2019-06-10T00:15:04.933Z,3.95
2019-06-10T00:17:52.507Z,3.10
2019-06-10T00:20:11.636Z,4.22
2019-06-10T00:22:43.688Z,3.40
2019-06-10T00:25:15.738Z,3.58
2019-06-10T00:27:47.896Z,3.40
2019-06-10T00:30:20.834Z,3.37
2019-06-10T00:32:53.073Z,3.65
2019-06-10T00:35:25.310Z,3.62
2019-06-10T00:37:57.392Z,3.20
2019-06-10T00:40:31.682Z,3.45
2019-06-10T00:43:05.115Z,3.30
2019-06-10T00:45:37.179Z,3.47
2019-06-10T00:48:21.344Z,3.70
2019-06-10T00:50:43.378Z,3.25
2019-06-10T00:53:15.505Z,2.90
2019-06-10T00:55:48.528Z,3.08
2019-06-10T00:58:21.824Z,3.20
2019-06-10T01:00:53.874Z,3.10
2019-06-10T01:03:25.966Z,3.05
2019-06-10T01:05:58.090Z,2.80
2019-06-10T01:08:31.575Z,2.90
2019-06-10T01:11:09.949Z,3.20
2019-06-10T01:13:37.596Z,3.30
2019-06-10T01:16:12.107Z,3.00
2019-06-10T01:18:43.600Z,3.52
2019-06-10T01:21:15.682Z,3.15
2019-06-10T01:23:47.773Z,3.10
2019-06-10T01:26:21.623Z,3.25
2019-06-10T01:28:54.844Z,3.50
2019-06-10T01:31:26.951Z,3.50
2019-06-10T01:34:00.741Z,2.90
2019-06-10T01:36:32.906Z,3.40
2019-06-10T01:39:06.915Z,3.90
2019-06-10T01:41:40.944Z,3.80
2019-06-10T01:44:14.702Z,3.10
2019-06-10T01:46:46.557Z,3.13
2019-06-10T01:49:21.153Z,4.70
2019-06-10T01:51:52.650Z,3.30
2019-06-10T01:54:25.019Z,3.70
2019-06-10T01:56:57.154Z,3.70
2019-06-10T01:59:31.112Z,4.10
2019-06-10T02:02:12.764Z,3.65
2019-06-10T02:04:44.501Z,4.28
2019-06-10T02:07:18.469Z,3.75
2019-06-10T02:09:51.763Z,3.90
2019-06-10T02:12:24.406Z,4.65
2019-06-10T02:14:56.516Z,4.37
2019-06-10T02:17:31.043Z,4.62
2019-06-10T02:20:02.473Z,4.25
2019-06-10T02:22:34.505Z,4.85
2019-06-10T02:25:07.345Z,4.28
2019-06-10T02:27:41.558Z,4.25
2019-06-10T02:33:27.080Z,4.28
2019-06-10T02:35:53.817Z,4.33
2019-06-10T02:38:34.029Z,4.40
2019-06-10T02:40:59.033Z,4.50
2019-06-10T02:43:36.195Z,4.65
2019-06-10T02:46:05.885Z,4.42
2019-06-10T02:48:38.034Z,4.50
2019-06-10T02:51:13.085Z,4.72
2019-06-10T02:53:44.285Z,4.50
2019-06-10T02:56:17.689Z,4.30
2019-06-10T02:58:53.222Z,4.45
2019-06-10T03:01:31.887Z,4.67
2019-06-10T03:03:57.709Z,4.70
2019-06-10T03:06:34.636Z,4.97
2019-06-10T03:09:04.044Z,4.37
2019-06-10T03:11:37.887Z,4.45
2019-06-10T03:14:13.019Z,4.37
2019-06-10T03:16:52.888Z,4.05
2019-06-10T03:19:42.287Z,4.33
2019-06-10T03:21:58.761Z,4.67
2019-06-10T03:24:32.790Z,4.58
2019-06-10T03:27:04.601Z,3.80
2019-06-10T03:29:36.707Z,4.45
2019-06-10T03:32:08.884Z,4.28
2019-06-10T03:34:46.021Z,4.03
2019-06-10T03:37:14.592Z,5.07
2019-06-10T03:39:46.795Z,4.03
2019-06-10T03:42:18.922Z,3.90
2019-06-10T03:44:52.555Z,4.67
2019-06-10T03:47:27.147Z,3.85
2019-06-10T03:49:58.778Z,4.00
2019-06-10T03:52:32.475Z,3.92
2019-06-10T03:55:04.719Z,4.43
2019-06-10T03:57:36.882Z,4.00
2019-06-10T04:00:11.371Z,4.05
2019-06-10T04:02:43.553Z,4.10
2019-06-10T04:05:15.676Z,4.33
2019-06-10T04:07:47.722Z,4.60
2019-06-10T04:10:19.844Z,4.60
2019-06-10T04:12:52.396Z,4.30
2019-06-10T04:15:27.785Z,4.17
2019-06-10T04:17:58.453Z,4.05
2019-06-10T04:20:33.080Z,4.60
2019-06-10T04:23:04.384Z,4.33
2019-06-10T04:25:42.734Z,4.45
2019-06-10T04:28:14.580Z,4.45
2019-06-10T04:30:46.740Z,5.30
2019-06-10T04:33:18.862Z,3.80
2019-06-10T04:35:51.982Z,5.30
2019-06-10T04:38:25.993Z,4.40
2019-06-10T04:40:57.942Z,4.75
2019-06-10T04:43:32.317Z,4.47
2019-06-10T04:46:03.623Z,4.40
2019-06-10T04:48:35.715Z,5.55
2019-06-10T04:51:07.744Z,5.33
2019-06-10T04:53:41.046Z,4.95
2019-06-10T04:56:13.695Z,5.03
2019-06-10T04:58:45.865Z,5.22
2019-06-10T05:01:18.905Z,4.92
2019-06-10T05:03:52.667Z,5.50
2019-06-10T05:06:26.873Z,4.45
2019-06-10T05:08:59.206Z,4.50
2019-06-10T05:11:33.094Z,4.80
2019-06-10T05:14:05.040Z,4.92
2019-06-10T05:16:37.128Z,5.28
2019-06-10T05:19:09.245Z,4.10
2019-06-10T05:21:42.343Z,4.47
2019-06-10T05:24:14.537Z,4.92
2019-06-10T05:26:46.626Z,4.87
2019-06-10T05:29:18.646Z,5.28
2019-06-10T05:31:52.267Z,4.80
2019-06-10T05:34:26.821Z,4.90
2019-06-10T05:36:58.185Z,4.57
2019-06-10T05:39:30.722Z,4.90
2019-06-10T05:42:07.721Z,5.20
2019-06-10T05:44:43.060Z,4.70
2019-06-10T05:47:26.681Z,4.70
2019-06-10T05:50:25.211Z,4.53
2019-06-10T05:53:52.577Z,4.30
2019-06-10T05:57:25.789Z,4.55
2019-06-10T06:00:13.877Z,3.60
2019-06-10T06:03:37.127Z,5.00
2019-06-10T06:06:45.135Z,4.45
2019-06-10T06:13:02.951Z,5.22
2019-06-10T06:16:09.383Z,5.10
2019-06-10T06:19:53.410Z,4.72
2019-06-10T06:22:21.971Z,5.80
2019-06-10T06:25:15.596Z,4.90
2019-06-10T06:28:25.565Z,5.12
2019-06-10T06:31:16.742Z,6.50
2019-06-10T06:34:24.199Z,4.87
2019-06-10T06:44:39.155Z,5.10
2019-06-10T06:51:54.019Z,5.03
2019-06-10T06:54:14.910Z,4.97
2019-06-10T06:56:53.561Z,4.78
2019-06-10T06:59:38.635Z,5.40
2019-06-10T07:02:34.214Z,4.70
2019-06-10T07:05:18.974Z,4.67
2019-06-10T07:08:09.712Z,4.58
2019-06-10T07:11:13.160Z,4.35
2019-06-10T07:14:15.924Z,4.40
2019-06-10T07:16:53.402Z,4.35
2019-06-10T07:19:47.986Z,4.65
2019-06-10T07:23:09.427Z,4.60
2019-06-10T07:30:51.114Z,4.47
2019-06-10T07:37:54.163Z,3.58
2019-06-10T07:41:13.062Z,3.80
2019-06-10T07:45:06.825Z,4.28
2019-06-10T07:48:08.706Z,4.47
2019-06-10T07:51:09.797Z,3.33
2019-06-10T07:53:56.741Z,3.85
2019-06-10T07:57:42.628Z,3.50
2019-06-10T08:00:46.510Z,3.97
2019-06-10T08:03:46.758Z,3.60
2019-06-10T08:07:03.276Z,3.30
2019-06-10T08:13:23.908Z,3.50
2019-06-10T08:19:40.319Z,3.35
2019-06-10T08:25:46.849Z,3.30
2019-06-10T08:28:49.125Z,3.87
2019-06-10T08:32:04.185Z,4.05
2019-06-10T08:35:08.821Z,3.77
2019-06-10T08:38:23.708Z,3.67
2019-06-10T08:41:49.057Z,3.85
2019-06-10T08:48:15.485Z,3.55
2019-06-10T08:51:15.699Z,4.35
2019-06-10T08:54:08.479Z,4.03
2019-06-10T08:56:47.278Z,4.37
2019-06-10T08:59:27.794Z,4.28
2019-06-10T09:02:02.434Z,5.20
2019-06-10T09:04:50.441Z,3.98
2019-06-10T09:07:32.323Z,4.53
2019-06-10T09:10:13.481Z,4.60
2019-06-10T09:12:49.150Z,4.42
2019-06-10T09:15:32.356Z,4.70
2019-06-10T09:18:19.668Z,4.75
2019-06-10T09:20:55.848Z,3.62
2019-06-10T09:23:34.758Z,4.00
2019-06-10T09:26:19.467Z,4.45
2019-06-10T09:28:57.441Z,4.80
2019-06-10T09:31:33.018Z,5.95
2019-06-10T09:34:13.004Z,5.20
2019-06-10T09:36:51.340Z,5.30
2019-06-10T09:39:27.056Z,5.60
2019-06-10T09:42:14.080Z,5.58
2019-06-10T09:45:02.615Z,5.50
2019-06-10T09:47:44.496Z,5.40
2019-06-10T09:53:38.902Z,5.20
2019-06-10T09:56:08.275Z,4.80
2019-06-10T09:58:44.673Z,4.58
2019-06-10T10:01:19.582Z,4.15
2019-06-10T10:05:03.114Z,4.62
2019-06-10T10:12:55.926Z,4.53
2019-06-10T10:15:57.100Z,4.53
2019-06-10T10:18:37.796Z,4.47
2019-06-10T10:21:42.319Z,4.58
2019-06-10T10:24:34.111Z,3.70
2019-06-10T10:27:23.389Z,4.53
2019-06-10T10:30:46.970Z,3.60
2019-06-10T10:34:22.759Z,3.30
2019-06-10T10:37:03.420Z,3.90
2019-06-10T10:41:04.541Z,4.22
2019-06-10T10:47:48.936Z,4.00
2019-06-10T10:50:35.510Z,3.17
2019-06-10T11:01:33.667Z,4.08
2019-06-10T11:05:36.144Z,3.70
2019-06-10T11:10:23.665Z,3.52
2019-06-10T11:17:15.881Z,3.65
2019-06-10T11:19:58.071Z,3.77
2019-06-10T11:22:37.013Z,3.47
2019-06-10T11:25:18.926Z,3.60
2019-06-10T11:28:49.529Z,3.42
2019-06-10T11:37:02.164Z,3.73
2019-06-10T11:57:34.705Z,3.62
2019-06-10T12:06:28.386Z,3.40
2019-06-10T12:12:03.891Z,3.12
2019-06-10T12:15:28.504Z,4.15
2019-06-10T12:18:45.533Z,3.52
2019-06-10T12:22:07.108Z,3.25
2019-06-10T12:25:31.633Z,3.60
2019-06-10T12:29:56.353Z,3.65
2019-06-10T12:31:57.849Z,5.37
2019-06-10T12:35:05.353Z,7.10
2019-06-10T12:37:51.921Z,5.00
2019-06-10T12:40:24.774Z,4.28
2019-06-10T12:42:59.723Z,3.40
2019-06-10T12:45:32.605Z,3.70
2019-06-10T12:48:06.845Z,3.65
2019-06-10T12:50:38.441Z,3.90
2019-06-10T12:53:12.526Z,3.90
2019-06-10T12:55:47.116Z,3.80
2019-06-10T12:58:18.324Z,3.17
2019-06-10T13:00:52.908Z,4.55
2019-06-10T13:03:26.958Z,3.30
2019-06-10T13:06:03.618Z,4.40
2019-06-10T13:08:36.807Z,4.08
2019-06-10T13:11:08.945Z,4.30
2019-06-10T13:13:42.552Z,5.12
2019-06-10T13:16:14.821Z,5.20
2019-06-10T13:18:47.003Z,4.90
2019-06-10T13:21:19.129Z,4.70
2019-06-10T13:23:53.375Z,4.83
2019-06-10T13:26:25.192Z,5.10
2019-06-10T13:28:57.341Z,5.10
2019-06-10T13:31:29.499Z,4.62
2019-06-10T13:34:05.437Z,5.28
2019-06-10T13:36:35.563Z,4.85
2019-06-10T13:39:10.430Z,3.92
2019-06-10T13:41:43.968Z,4.97
2019-06-10T13:44:16.816Z,4.50
2019-06-10T13:46:49.389Z,4.58
2019-06-10T13:49:22.730Z,3.77
2019-06-10T13:51:55.536Z,4.00
2019-06-10T13:54:27.714Z,3.95
2019-06-10T13:57:01.471Z,3.92
2019-06-10T13:59:33.738Z,3.80
2019-06-10T14:02:08.465Z,4.30
2019-06-10T14:04:39.594Z,4.03
2019-06-10T14:07:16.901Z,4.42
2019-06-10T14:09:45.458Z,4.62
2019-06-10T14:12:17.896Z,4.62
2019-06-10T14:14:53.297Z,3.87
2019-06-10T14:17:25.038Z,4.47
2019-06-10T14:19:57.183Z,4.83
2019-06-10T14:22:29.133Z,6.70
2019-06-10T14:25:03.341Z,4.58
2019-06-10T14:27:35.369Z,5.50
2019-06-10T14:30:09.511Z,5.25
2019-06-10T14:32:42.554Z,4.92
2019-06-10T14:35:17.684Z,4.80
2019-06-10T14:37:49.879Z,4.17
2019-06-10T14:40:25.187Z,5.35
2019-06-10T14:42:55.778Z,4.78
2019-06-10T14:45:27.969Z,5.35
2019-06-10T14:48:02.727Z,5.30
2019-06-10T14:50:34.029Z,4.90
2019-06-10T14:53:06.967Z,6.70
2019-06-10T14:55:39.031Z,6.40
2019-06-10T14:58:13.615Z,5.90
2019-06-10T15:00:45.774Z,5.67
2019-06-10T15:03:20.052Z,5.95
2019-06-10T15:05:52.967Z,6.37
2019-06-10T15:08:25.187Z,6.00
2019-06-10T15:10:57.224Z,5.62
2019-06-10T15:13:29.385Z,5.08
2019-06-10T15:16:04.466Z,5.60
2019-06-10T15:18:35.397Z,5.40
2019-06-10T15:21:08.742Z,5.22
2019-06-10T15:23:42.902Z,4.60
2019-06-10T15:26:16.167Z,5.40
2019-06-10T15:28:48.428Z,5.45
2019-06-10T15:31:20.628Z,4.90
2019-06-10T15:33:52.847Z,5.50
2019-06-10T15:36:25.400Z,6.55
2019-06-10T15:38:58.011Z,5.35
2019-06-10T15:41:32.330Z,5.50
2019-06-10T15:44:05.083Z,4.53
2019-06-10T15:46:37.348Z,5.80
2019-06-10T15:49:12.034Z,4.70
2019-06-10T15:51:43.718Z,5.08
2019-06-10T15:54:17.693Z,6.58
2019-06-10T15:56:53.860Z,7.30
2019-06-10T15:59:23.880Z,6.05
2019-06-10T16:01:55.955Z,5.60
2019-06-10T16:04:29.902Z,6.33
2019-06-10T16:07:02.627Z,6.05
2019-06-10T16:09:34.945Z,5.87
2019-06-10T16:12:07.405Z,5.53
2019-06-10T16:14:39.520Z,5.58
2019-06-10T16:17:12.938Z,5.58
2019-06-10T16:19:45.538Z,5.25
2019-06-10T16:22:17.764Z,6.03
2019-06-10T16:24:49.858Z,5.75
2019-06-10T16:27:23.006Z,5.60
2019-06-10T16:29:55.767Z,5.50
2019-06-10T16:32:27.941Z,5.15
2019-06-10T16:35:00.129Z,5.40
2019-06-10T16:37:32.747Z,5.33
2019-06-10T16:40:05.512Z,5.20
2019-06-10T16:42:37.639Z,5.15
2019-06-10T16:45:10.211Z,5.10
2019-06-10T16:47:43.047Z,5.05
2019-06-10T16:50:15.753Z,4.72
2019-06-10T16:52:47.923Z,5.45
2019-06-10T16:55:22.244Z,4.47
2019-06-10T16:57:59.218Z,4.25
2019-06-10T17:00:28.040Z,4.03
2019-06-10T17:03:00.222Z,5.55
2019-06-10T17:05:33.200Z,5.12
2019-06-10T17:08:05.582Z,4.20
2019-06-10T17:10:37.697Z,4.45
2019-06-10T17:13:12.957Z,4.78
2019-06-10T17:15:45.218Z,3.90
2019-06-10T17:18:18.485Z,4.35
2019-06-10T17:20:53.275Z,4.60
2019-06-10T17:23:27.062Z,4.33
2019-06-10T17:25:58.925Z,11.00
2019-06-10T17:28:36.175Z,6.55
2019-06-10T17:31:05.223Z,5.60
2019-06-10T17:33:37.338Z,5.00
2019-06-10T17:36:09.455Z,5.45
2019-06-10T17:38:42.979Z,5.05
2019-06-10T17:41:15.266Z,4.55
2019-06-10T17:43:47.399Z,6.12
2019-06-10T17:46:19.524Z,5.28
2019-06-10T17:48:52.135Z,5.58
2019-06-10T17:51:26.174Z,5.15
2019-06-10T17:53:58.029Z,5.35
2019-06-10T17:56:31.865Z,6.05
2019-06-10T17:59:04.031Z,5.83
2019-06-10T18:01:36.245Z,5.70
2019-06-10T18:04:08.344Z,6.70
2019-06-10T18:06:42.471Z,7.15
2019-06-10T18:09:14.256Z,6.58
2019-06-10T18:11:46.360Z,6.62
2019-06-10T18:14:18.418Z,6.33
2019-06-10T18:16:52.428Z,6.55
2019-06-10T18:19:26.308Z,7.12
2019-06-10T18:21:58.544Z,6.67
2019-06-10T18:24:31.004Z,6.25
2019-06-10T18:27:04.252Z,8.40
2019-06-10T18:29:37.314Z,7.25
2019-06-10T18:32:09.504Z,7.67
2019-06-10T18:34:42.641Z,7.42
2019-06-10T18:37:14.871Z,7.08
2019-06-10T18:39:47.313Z,7.62
2019-06-10T18:42:19.595Z,6.97
2019-06-10T18:44:52.216Z,8.08
2019-06-10T18:47:25.147Z,9.85
2019-06-10T18:49:57.327Z,8.00
2019-06-10T18:52:29.767Z,6.83
2019-06-10T18:55:03.333Z,7.97
2019-06-10T18:57:36.565Z,6.90
2019-06-10T19:00:13.718Z,7.50
2019-06-10T19:02:43.724Z,7.10
2019-06-10T19:05:16.216Z,6.78
2019-06-10T19:07:48.404Z,6.92
2019-06-10T19:10:23.060Z,6.92
2019-06-10T19:12:55.335Z,7.15
2019-06-10T19:15:27.537Z,7.28
2019-06-10T19:17:59.775Z,7.58
2019-06-10T19:20:36.400Z,7.62
2019-06-10T19:23:06.014Z,7.42
2019-06-10T19:25:38.866Z,7.30
2019-06-10T19:28:12.294Z,7.50
2019-06-10T19:30:44.924Z,7.28
2019-06-10T19:33:17.197Z,7.58
2019-06-10T19:35:49.387Z,7.17
2019-06-10T19:38:23.128Z,7.25
2019-06-10T19:40:55.420Z,7.00
2019-06-10T19:43:27.547Z,7.12
2019-06-10T19:46:00.572Z,6.72
2019-06-10T19:48:38.426Z,7.20
2019-06-10T19:51:07.658Z,6.22
2019-06-10T19:53:42.199Z,6.75
2019-06-10T19:56:13.614Z,6.90
2019-06-10T19:58:46.505Z,6.70
2019-06-10T20:01:18.739Z,7.90
2019-06-10T20:03:52.093Z,7.25
2019-06-10T20:06:24.279Z,6.55
2019-06-10T20:08:56.789Z,6.90
2019-06-10T20:11:28.922Z,7.28
2019-06-10T20:14:02.540Z,7.22
2019-06-10T20:16:35.594Z,8.28
2019-06-10T20:19:07.842Z,7.80
2019-06-10T20:21:40.736Z,7.30
2019-06-10T20:24:13.801Z,8.60
2019-06-10T20:26:47.630Z,7.62
2019-06-10T20:29:22.038Z,8.80
2019-06-10T20:31:53.549Z,7.25
2019-06-10T20:34:26.041Z,7.60
2019-06-10T20:36:58.159Z,7.95
2019-06-10T20:39:32.845Z,8.35
2019-06-10T20:42:04.123Z,7.12
2019-06-10T20:44:36.306Z,9.03
2019-06-10T20:47:08.517Z,8.83
2019-06-10T20:49:43.113Z,8.15
2019-06-10T20:52:15.749Z,10.15
2019-06-10T20:54:48.814Z,8.35
2019-06-10T20:57:22.639Z,8.75
2019-06-10T20:59:54.899Z,8.95
2019-06-10T21:02:27.889Z,8.60
2019-06-10T21:05:02.576Z,9.50
2019-06-10T21:07:36.206Z,9.05
2019-06-10T21:10:08.903Z,10.15
2019-06-10T21:12:44.347Z,11.57
2019-06-10T21:15:16.201Z,13.22
2019-06-10T21:17:49.203Z,11.93
2019-06-10T21:20:22.523Z,11.50
2019-06-10T21:22:54.650Z,11.43
2019-06-10T21:25:26.771Z,11.80
2019-06-10T21:27:58.914Z,13.90
2019-06-10T21:30:38.431Z,15.00
2019-06-10T21:33:04.939Z,13.65
2019-06-10T21:35:37.058Z,13.30
2019-06-10T21:38:09.298Z,13.62
2019-06-10T21:40:42.516Z,14.38
2019-06-10T21:43:15.383Z,13.88
2019-06-10T21:45:53.987Z,12.30
2019-06-10T21:48:23.017Z,13.28
2019-06-10T21:50:56.195Z,11.18
2019-06-10T21:53:28.171Z,11.55
2019-06-10T21:56:00.385Z,10.65
2019-06-10T21:58:32.929Z,9.58
2019-06-10T22:01:13.043Z,11.53
2019-06-10T22:03:40.380Z,10.70
2019-06-10T22:06:12.558Z,10.70
2019-06-10T22:08:45.734Z,10.90
2019-06-10T22:11:17.907Z,11.08
2019-06-10T22:13:52.452Z,11.43
2019-06-10T22:16:23.888Z,11.15
2019-06-10T22:18:56.091Z,9.95
2019-06-10T22:21:28.164Z,11.08
2019-06-10T22:24:02.195Z,10.55
2019-06-10T22:26:34.024Z,11.48
2019-06-10T22:29:08.463Z,11.35
2019-06-10T22:31:42.750Z,10.78
2019-06-10T22:34:14.371Z,11.73
2019-06-10T22:36:47.567Z,11.28
2019-06-10T22:39:22.336Z,10.95
2019-06-10T22:41:56.627Z,10.55
2019-06-10T22:44:28.416Z,10.00
2019-06-10T22:47:02.774Z,10.45
2019-06-10T22:49:34.300Z,10.32
2019-06-10T22:52:06.527Z,9.93
2019-06-10T22:54:38.746Z,9.98
2019-06-10T22:57:12.837Z,9.68
2019-06-10T22:59:44.648Z,9.18
2019-06-10T23:02:16.773Z,9.10
2019-06-10T23:04:49.116Z,9.38
2019-06-10T23:07:23.030Z,8.75
2019-06-10T23:09:56.345Z,8.28
2019-06-10T23:12:29.129Z,8.73
2019-06-10T23:15:02.793Z,9.55
2019-06-10T23:17:35.366Z,8.78
2019-06-10T23:20:07.690Z,7.62
2019-06-10T23:22:39.867Z,8.73
2019-06-10T23:25:12.655Z,8.50
2019-06-10T23:27:44.898Z,9.05
2019-06-10T23:30:17.049Z,8.90
2019-06-10T23:32:49.927Z,9.48
2019-06-10T23:35:23.058Z,9.40
2019-06-10T23:37:57.233Z,8.10
2019-06-10T23:40:29.062Z,8.73
2019-06-10T23:43:03.723Z,8.20
2019-06-10T23:45:35.491Z,7.55
2019-06-10T23:48:07.597Z,7.05
2019-06-10T23:50:39.611Z,7.10
2019-06-10T23:53:13.174Z,7.92
2019-06-10T23:55:45.454Z,8.20
2019-06-10T23:58:17.623Z,7.58
